sensor_id;sensor_type;location;lat;lon;timestamp;P1;durP1;ratioP1;P2;durP2;ratioP2
37527;SDS011;23372;52.050;4.810;2023-04-24T00:00:10;3.13;;;2.10;;
37527;SDS011;23372;52.050;4.810;2023-04-24T00:02:39;3.40;;;1.80;;
37527;SDS011;23372;52.050;4.810;2023-04-24T00:05:13;2.93;;;1.90;;
37527;SDS011;23372;52.050;4.810;2023-04-24T00:07:40;5.07;;;1.80;;
37527;SDS011;23372;52.050;4.810;2023-04-24T00:10:06;3.03;;;2.03;;
37527;SDS011;23372;52.050;4.810;2023-04-24T00:12:33;5.27;;;2.43;;
37527;SDS011;23372;52.050;4.810;2023-04-24T00:14:58;5.70;;;3.50;;
37527;SDS011;23372;52.050;4.810;2023-04-24T00:17:24;4.13;;;2.70;;
37527;SDS011;23372;52.050;4.810;2023-04-24T00:19:50;3.53;;;2.57;;
37527;SDS011;23372;52.050;4.810;2023-04-24T00:22:16;4.13;;;2.50;;
37527;SDS011;23372;52.050;4.810;2023-04-24T00:24:42;4.53;;;3.00;;
37527;SDS011;23372;52.050;4.810;2023-04-24T00:27:09;5.63;;;2.80;;
37527;SDS011;23372;52.050;4.810;2023-04-24T00:29:38;5.67;;;3.47;;
37527;SDS011;23372;52.050;4.810;2023-04-24T00:32:04;4.93;;;2.67;;
37527;SDS011;23372;52.050;4.810;2023-04-24T00:34:30;6.87;;;3.10;;
37527;SDS011;23372;52.050;4.810;2023-04-24T00:36:57;5.60;;;2.90;;
37527;SDS011;23372;52.050;4.810;2023-04-24T00:39:23;5.17;;;2.60;;
37527;SDS011;23372;52.050;4.810;2023-04-24T00:41:49;5.47;;;2.90;;
37527;SDS011;23372;52.050;4.810;2023-04-24T00:44:16;7.67;;;3.70;;
37527;SDS011;23372;52.050;4.810;2023-04-24T00:46:42;8.30;;;3.40;;
37527;SDS011;23372;52.050;4.810;2023-04-24T00:49:08;5.87;;;3.73;;
37527;SDS011;23372;52.050;4.810;2023-04-24T00:51:33;7.07;;;3.40;;
37527;SDS011;23372;52.050;4.810;2023-04-24T00:53:59;7.73;;;4.43;;
37527;SDS011;23372;52.050;4.810;2023-04-24T00:56:25;6.60;;;4.37;;
37527;SDS011;23372;52.050;4.810;2023-04-24T00:58:51;7.83;;;3.73;;
37527;SDS011;23372;52.050;4.810;2023-04-24T01:01:21;6.53;;;4.53;;
37527;SDS011;23372;52.050;4.810;2023-04-24T01:03:47;9.70;;;4.50;;
37527;SDS011;23372;52.050;4.810;2023-04-24T01:06:15;6.67;;;4.37;;
37527;SDS011;23372;52.050;4.810;2023-04-24T01:08:43;7.00;;;4.63;;
37527;SDS011;23372;52.050;4.810;2023-04-24T01:11:10;8.03;;;4.20;;
37527;SDS011;23372;52.050;4.810;2023-04-24T01:13:36;5.90;;;2.77;;
37527;SDS011;23372;52.050;4.810;2023-04-24T01:16:02;7.43;;;3.37;;
37527;SDS011;23372;52.050;4.810;2023-04-24T01:18:27;7.93;;;3.97;;
37527;SDS011;23372;52.050;4.810;2023-04-24T01:20:54;6.60;;;4.03;;
37527;SDS011;23372;52.050;4.810;2023-04-24T01:23:22;6.93;;;3.30;;
37527;SDS011;23372;52.050;4.810;2023-04-24T01:25:49;6.43;;;3.70;;
37527;SDS011;23372;52.050;4.810;2023-04-24T01:28:16;6.37;;;4.23;;
37527;SDS011;23372;52.050;4.810;2023-04-24T01:30:42;7.47;;;4.43;;
37527;SDS011;23372;52.050;4.810;2023-04-24T01:33:08;8.20;;;4.97;;
37527;SDS011;23372;52.050;4.810;2023-04-24T01:35:35;9.37;;;4.90;;
37527;SDS011;23372;52.050;4.810;2023-04-24T01:38:02;9.23;;;5.13;;
37527;SDS011;23372;52.050;4.810;2023-04-24T01:40:28;8.23;;;4.70;;
37527;SDS011;23372;52.050;4.810;2023-04-24T01:42:53;8.10;;;4.50;;
37527;SDS011;23372;52.050;4.810;2023-04-24T01:45:19;12.10;;;4.90;;
37527;SDS011;23372;52.050;4.810;2023-04-24T01:47:45;11.40;;;4.97;;
37527;SDS011;23372;52.050;4.810;2023-04-24T01:50:11;11.63;;;4.37;;
37527;SDS011;23372;52.050;4.810;2023-04-24T01:52:37;9.37;;;4.67;;
37527;SDS011;23372;52.050;4.810;2023-04-24T01:55:03;8.10;;;4.00;;
37527;SDS011;23372;52.050;4.810;2023-04-24T01:57:30;7.17;;;4.37;;
37527;SDS011;23372;52.050;4.810;2023-04-24T01:59:56;6.03;;;3.70;;
37527;SDS011;23372;52.050;4.810;2023-04-24T02:02:22;5.17;;;3.30;;
37527;SDS011;23372;52.050;4.810;2023-04-24T02:04:54;4.03;;;2.80;;
37527;SDS011;23372;52.050;4.810;2023-04-24T02:07:20;5.70;;;3.10;;
37527;SDS011;23372;52.050;4.810;2023-04-24T02:09:46;5.30;;;2.83;;
37527;SDS011;23372;52.050;4.810;2023-04-24T02:12:12;4.83;;;2.43;;
37527;SDS011;23372;52.050;4.810;2023-04-24T02:14:38;5.87;;;2.80;;
37527;SDS011;23372;52.050;4.810;2023-04-24T02:17:04;5.27;;;2.13;;
37527;SDS011;23372;52.050;4.810;2023-04-24T02:19:30;5.63;;;2.07;;
37527;SDS011;23372;52.050;4.810;2023-04-24T02:21:59;4.77;;;2.23;;
37527;SDS011;23372;52.050;4.810;2023-04-24T02:24:24;5.13;;;2.57;;
37527;SDS011;23372;52.050;4.810;2023-04-24T02:26:50;3.90;;;2.20;;
37527;SDS011;23372;52.050;4.810;2023-04-24T02:29:16;8.33;;;2.37;;
37527;SDS011;23372;52.050;4.810;2023-04-24T02:31:42;4.60;;;2.20;;
37527;SDS011;23372;52.050;4.810;2023-04-24T02:34:08;5.30;;;2.87;;
37527;SDS011;23372;52.050;4.810;2023-04-24T02:36:34;7.53;;;3.63;;
37527;SDS011;23372;52.050;4.810;2023-04-24T02:39:00;6.23;;;3.50;;
37527;SDS011;23372;52.050;4.810;2023-04-24T02:41:26;8.67;;;3.50;;
37527;SDS011;23372;52.050;4.810;2023-04-24T02:43:56;7.63;;;3.83;;
37527;SDS011;23372;52.050;4.810;2023-04-24T02:46:22;6.17;;;3.63;;
37527;SDS011;23372;52.050;4.810;2023-04-24T02:48:48;3.93;;;2.97;;
37527;SDS011;23372;52.050;4.810;2023-04-24T02:51:14;7.07;;;3.33;;
37527;SDS011;23372;52.050;4.810;2023-04-24T02:53:40;6.67;;;3.90;;
37527;SDS011;23372;52.050;4.810;2023-04-24T02:56:05;8.17;;;4.07;;
37527;SDS011;23372;52.050;4.810;2023-04-24T02:58:31;8.27;;;4.10;;
37527;SDS011;23372;52.050;4.810;2023-04-24T03:00:57;9.10;;;4.70;;
37527;SDS011;23372;52.050;4.810;2023-04-24T03:03:22;8.03;;;4.17;;
37527;SDS011;23372;52.050;4.810;2023-04-24T03:05:48;6.43;;;3.80;;
37527;SDS011;23372;52.050;4.810;2023-04-24T03:08:15;7.57;;;3.87;;
37527;SDS011;23372;52.050;4.810;2023-04-24T03:10:41;7.80;;;4.37;;
37527;SDS011;23372;52.050;4.810;2023-04-24T03:13:06;7.77;;;3.50;;
37527;SDS011;23372;52.050;4.810;2023-04-24T03:15:32;5.73;;;3.67;;
37527;SDS011;23372;52.050;4.810;2023-04-24T03:17:57;6.00;;;3.37;;
37527;SDS011;23372;52.050;4.810;2023-04-24T03:20:23;6.67;;;2.87;;
37527;SDS011;23372;52.050;4.810;2023-04-24T03:22:49;7.43;;;2.60;;
37527;SDS011;23372;52.050;4.810;2023-04-24T03:25:15;3.33;;;2.03;;
37527;SDS011;23372;52.050;4.810;2023-04-24T03:27:41;3.43;;;2.13;;
37527;SDS011;23372;52.050;4.810;2023-04-24T03:30:07;2.47;;;1.83;;
37527;SDS011;23372;52.050;4.810;2023-04-24T03:32:33;3.33;;;1.50;;
37527;SDS011;23372;52.050;4.810;2023-04-24T03:34:58;2.07;;;1.30;;
37527;SDS011;23372;52.050;4.810;2023-04-24T03:37:24;1.33;;;0.73;;
37527;SDS011;23372;52.050;4.810;2023-04-24T03:39:51;3.60;;;0.97;;
37527;SDS011;23372;52.050;4.810;2023-04-24T03:42:17;4.77;;;1.17;;
37527;SDS011;23372;52.050;4.810;2023-04-24T03:44:42;3.73;;;0.70;;
37527;SDS011;23372;52.050;4.810;2023-04-24T03:47:08;1.40;;;0.50;;
37527;SDS011;23372;52.050;4.810;2023-04-24T03:49:34;1.27;;;0.70;;
37527;SDS011;23372;52.050;4.810;2023-04-24T03:52:00;4.13;;;1.63;;
37527;SDS011;23372;52.050;4.810;2023-04-24T03:54:26;3.20;;;0.60;;
37527;SDS011;23372;52.050;4.810;2023-04-24T03:56:52;2.10;;;0.90;;
37527;SDS011;23372;52.050;4.810;2023-04-24T03:59:18;2.67;;;0.80;;
37527;SDS011;23372;52.050;4.810;2023-04-24T04:01:44;1.70;;;0.90;;
37527;SDS011;23372;52.050;4.810;2023-04-24T04:04:10;3.63;;;0.90;;
37527;SDS011;23372;52.050;4.810;2023-04-24T04:06:36;2.43;;;0.90;;
37527;SDS011;23372;52.050;4.810;2023-04-24T04:09:02;2.90;;;0.90;;
37527;SDS011;23372;52.050;4.810;2023-04-24T04:11:28;4.40;;;0.97;;
37527;SDS011;23372;52.050;4.810;2023-04-24T04:13:55;1.63;;;1.00;;
37527;SDS011;23372;52.050;4.810;2023-04-24T04:16:21;1.87;;;1.00;;
37527;SDS011;23372;52.050;4.810;2023-04-24T04:18:47;4.10;;;0.67;;
37527;SDS011;23372;52.050;4.810;2023-04-24T04:21:13;1.37;;;0.67;;
37527;SDS011;23372;52.050;4.810;2023-04-24T04:23:38;1.83;;;0.60;;
37527;SDS011;23372;52.050;4.810;2023-04-24T04:26:05;0.83;;;0.53;;
37527;SDS011;23372;52.050;4.810;2023-04-24T04:28:31;1.43;;;0.50;;
37527;SDS011;23372;52.050;4.810;2023-04-24T04:30:57;0.90;;;0.50;;
37527;SDS011;23372;52.050;4.810;2023-04-24T04:33:25;1.77;;;0.40;;
37527;SDS011;23372;52.050;4.810;2023-04-24T04:35:51;0.87;;;0.50;;
37527;SDS011;23372;52.050;4.810;2023-04-24T04:38:20;1.60;;;0.60;;
37527;SDS011;23372;52.050;4.810;2023-04-24T04:40:46;0.53;;;0.37;;
37527;SDS011;23372;52.050;4.810;2023-04-24T04:43:12;2.03;;;0.60;;
37527;SDS011;23372;52.050;4.810;2023-04-24T04:45:41;2.03;;;0.73;;
37527;SDS011;23372;52.050;4.810;2023-04-24T04:48:08;1.97;;;0.50;;
37527;SDS011;23372;52.050;4.810;2023-04-24T04:50:34;1.33;;;0.50;;
37527;SDS011;23372;52.050;4.810;2023-04-24T04:53:00;2.20;;;0.50;;
37527;SDS011;23372;52.050;4.810;2023-04-24T04:55:26;1.23;;;0.37;;
37527;SDS011;23372;52.050;4.810;2023-04-24T04:57:52;2.70;;;0.50;;
37527;SDS011;23372;52.050;4.810;2023-04-24T05:00:18;0.60;;;0.40;;
37527;SDS011;23372;52.050;4.810;2023-04-24T05:02:44;0.33;;;0.27;;
37527;SDS011;23372;52.050;4.810;2023-04-24T05:05:09;0.53;;;0.40;;
37527;SDS011;23372;52.050;4.810;2023-04-24T05:07:35;1.23;;;0.40;;
37527;SDS011;23372;52.050;4.810;2023-04-24T05:10:01;0.57;;;0.40;;
37527;SDS011;23372;52.050;4.810;2023-04-24T05:12:27;2.20;;;0.43;;
37527;SDS011;23372;52.050;4.810;2023-04-24T05:14:52;3.10;;;0.47;;
37527;SDS011;23372;52.050;4.810;2023-04-24T05:17:18;2.07;;;0.60;;
37527;SDS011;23372;52.050;4.810;2023-04-24T05:19:44;0.80;;;0.70;;
37527;SDS011;23372;52.050;4.810;2023-04-24T05:22:11;4.17;;;1.10;;
37527;SDS011;23372;52.050;4.810;2023-04-24T05:24:37;4.07;;;1.70;;
37527;SDS011;23372;52.050;4.810;2023-04-24T05:27:03;5.20;;;2.10;;
37527;SDS011;23372;52.050;4.810;2023-04-24T05:29:38;7.53;;;3.50;;
37527;SDS011;23372;52.050;4.810;2023-04-24T05:32:03;8.70;;;3.70;;
37527;SDS011;23372;52.050;4.810;2023-04-24T05:34:29;11.53;;;4.20;;
37527;SDS011;23372;52.050;4.810;2023-04-24T05:36:55;10.57;;;4.27;;
37527;SDS011;23372;52.050;4.810;2023-04-24T05:39:20;9.27;;;4.83;;
37527;SDS011;23372;52.050;4.810;2023-04-24T05:41:46;10.73;;;6.33;;
37527;SDS011;23372;52.050;4.810;2023-04-24T05:44:12;12.97;;;7.43;;
37527;SDS011;23372;52.050;4.810;2023-04-24T05:46:38;13.60;;;7.93;;
37527;SDS011;23372;52.050;4.810;2023-04-24T05:49:03;15.53;;;9.87;;
37527;SDS011;23372;52.050;4.810;2023-04-24T05:51:32;20.70;;;10.77;;
37527;SDS011;23372;52.050;4.810;2023-04-24T05:53:58;21.07;;;11.67;;
37527;SDS011;23372;52.050;4.810;2023-04-24T05:56:23;22.13;;;12.47;;
37527;SDS011;23372;52.050;4.810;2023-04-24T05:58:49;20.83;;;11.80;;
37527;SDS011;23372;52.050;4.810;2023-04-24T06:01:15;23.20;;;12.40;;
37527;SDS011;23372;52.050;4.810;2023-04-24T06:03:41;26.73;;;13.63;;
37527;SDS011;23372;52.050;4.810;2023-04-24T06:06:07;24.23;;;12.87;;
37527;SDS011;23372;52.050;4.810;2023-04-24T06:08:33;26.20;;;13.10;;
37527;SDS011;23372;52.050;4.810;2023-04-24T06:10:59;27.20;;;12.03;;
37527;SDS011;23372;52.050;4.810;2023-04-24T06:13:25;25.47;;;12.30;;
37527;SDS011;23372;52.050;4.810;2023-04-24T06:15:51;22.70;;;11.27;;
37527;SDS011;23372;52.050;4.810;2023-04-24T06:18:17;24.27;;;11.83;;
37527;SDS011;23372;52.050;4.810;2023-04-24T06:20:43;22.27;;;11.37;;
37527;SDS011;23372;52.050;4.810;2023-04-24T06:23:10;24.27;;;11.10;;
37527;SDS011;23372;52.050;4.810;2023-04-24T06:25:36;22.83;;;11.13;;
37527;SDS011;23372;52.050;4.810;2023-04-24T06:28:02;24.47;;;12.00;;
37527;SDS011;23372;52.050;4.810;2023-04-24T06:30:28;23.50;;;10.90;;
37527;SDS011;23372;52.050;4.810;2023-04-24T06:32:54;24.90;;;10.13;;
37527;SDS011;23372;52.050;4.810;2023-04-24T06:35:20;20.43;;;10.30;;
37527;SDS011;23372;52.050;4.810;2023-04-24T06:37:45;26.40;;;10.27;;
37527;SDS011;23372;52.050;4.810;2023-04-24T06:40:11;24.83;;;11.17;;
37527;SDS011;23372;52.050;4.810;2023-04-24T06:42:37;26.67;;;9.77;;
37527;SDS011;23372;52.050;4.810;2023-04-24T06:45:03;22.23;;;8.30;;
37527;SDS011;23372;52.050;4.810;2023-04-24T06:47:30;24.90;;;8.63;;
37527;SDS011;23372;52.050;4.810;2023-04-24T06:49:55;29.67;;;7.83;;
37527;SDS011;23372;52.050;4.810;2023-04-24T06:52:21;20.87;;;9.07;;
37527;SDS011;23372;52.050;4.810;2023-04-24T06:54:47;22.67;;;7.60;;
37527;SDS011;23372;52.050;4.810;2023-04-24T06:57:13;31.27;;;9.33;;
37527;SDS011;23372;52.050;4.810;2023-04-24T06:59:40;35.70;;;9.00;;
37527;SDS011;23372;52.050;4.810;2023-04-24T07:02:06;21.87;;;7.43;;
37527;SDS011;23372;52.050;4.810;2023-04-24T07:04:32;23.57;;;7.50;;
37527;SDS011;23372;52.050;4.810;2023-04-24T07:06:58;18.07;;;7.10;;
37527;SDS011;23372;52.050;4.810;2023-04-24T07:09:24;20.53;;;7.10;;
37527;SDS011;23372;52.050;4.810;2023-04-24T07:11:51;28.03;;;7.30;;
37527;SDS011;23372;52.050;4.810;2023-04-24T07:14:18;17.80;;;6.60;;
37527;SDS011;23372;52.050;4.810;2023-04-24T07:16:44;26.97;;;7.47;;
37527;SDS011;23372;52.050;4.810;2023-04-24T07:19:10;23.23;;;7.00;;
37527;SDS011;23372;52.050;4.810;2023-04-24T07:21:36;25.07;;;6.87;;
37527;SDS011;23372;52.050;4.810;2023-04-24T07:24:02;20.97;;;6.50;;
37527;SDS011;23372;52.050;4.810;2023-04-24T07:26:28;23.27;;;5.50;;
37527;SDS011;23372;52.050;4.810;2023-04-24T07:28:55;25.50;;;5.87;;
37527;SDS011;23372;52.050;4.810;2023-04-24T07:31:21;24.63;;;5.27;;
37527;SDS011;23372;52.050;4.810;2023-04-24T07:33:47;30.43;;;5.27;;
37527;SDS011;23372;52.050;4.810;2023-04-24T07:36:13;21.50;;;4.50;;
37527;SDS011;23372;52.050;4.810;2023-04-24T07:38:44;17.17;;;4.30;;
37527;SDS011;23372;52.050;4.810;2023-04-24T07:41:10;19.70;;;4.90;;
37527;SDS011;23372;52.050;4.810;2023-04-24T07:43:36;12.80;;;3.13;;
37527;SDS011;23372;52.050;4.810;2023-04-24T07:46:01;17.93;;;3.80;;
37527;SDS011;23372;52.050;4.810;2023-04-24T07:48:27;18.90;;;3.43;;
37527;SDS011;23372;52.050;4.810;2023-04-24T07:50:53;13.10;;;3.63;;
37527;SDS011;23372;52.050;4.810;2023-04-24T07:53:18;12.77;;;2.90;;
37527;SDS011;23372;52.050;4.810;2023-04-24T07:55:44;13.47;;;3.80;;
37527;SDS011;23372;52.050;4.810;2023-04-24T07:58:10;13.43;;;3.37;;
37527;SDS011;23372;52.050;4.810;2023-04-24T08:00:36;13.93;;;3.10;;
37527;SDS011;23372;52.050;4.810;2023-04-24T08:03:01;12.07;;;2.77;;
37527;SDS011;23372;52.050;4.810;2023-04-24T08:05:27;13.67;;;3.73;;
37527;SDS011;23372;52.050;4.810;2023-04-24T08:07:53;20.33;;;3.53;;
37527;SDS011;23372;52.050;4.810;2023-04-24T08:10:20;19.83;;;2.97;;
37527;SDS011;23372;52.050;4.810;2023-04-24T08:12:47;18.33;;;3.40;;
37527;SDS011;23372;52.050;4.810;2023-04-24T08:15:12;19.43;;;3.13;;
37527;SDS011;23372;52.050;4.810;2023-04-24T08:17:41;11.40;;;2.80;;
37527;SDS011;23372;52.050;4.810;2023-04-24T08:20:08;14.83;;;2.97;;
37527;SDS011;23372;52.050;4.810;2023-04-24T08:22:38;11.30;;;2.80;;
37527;SDS011;23372;52.050;4.810;2023-04-24T08:25:07;16.47;;;3.80;;
37527;SDS011;23372;52.050;4.810;2023-04-24T08:27:33;16.73;;;3.63;;
37527;SDS011;23372;52.050;4.810;2023-04-24T08:29:59;19.37;;;4.50;;
37527;SDS011;23372;52.050;4.810;2023-04-24T08:32:25;14.13;;;3.00;;
37527;SDS011;23372;52.050;4.810;2023-04-24T08:34:53;14.00;;;2.90;;
37527;SDS011;23372;52.050;4.810;2023-04-24T08:37:23;9.37;;;2.90;;
37527;SDS011;23372;52.050;4.810;2023-04-24T08:39:49;17.10;;;2.90;;
37527;SDS011;23372;52.050;4.810;2023-04-24T08:42:15;9.97;;;2.37;;
37527;SDS011;23372;52.050;4.810;2023-04-24T08:44:42;10.27;;;2.67;;
37527;SDS011;23372;52.050;4.810;2023-04-24T08:47:09;9.50;;;3.33;;
37527;SDS011;23372;52.050;4.810;2023-04-24T08:49:36;9.10;;;2.63;;
37527;SDS011;23372;52.050;4.810;2023-04-24T08:52:02;9.77;;;2.67;;
37527;SDS011;23372;52.050;4.810;2023-04-24T08:54:28;5.80;;;2.70;;
37527;SDS011;23372;52.050;4.810;2023-04-24T08:56:54;7.33;;;2.10;;
37527;SDS011;23372;52.050;4.810;2023-04-24T08:59:24;9.37;;;3.30;;
37527;SDS011;23372;52.050;4.810;2023-04-24T09:01:50;9.47;;;2.10;;
37527;SDS011;23372;52.050;4.810;2023-04-24T09:04:17;8.03;;;1.90;;
37527;SDS011;23372;52.050;4.810;2023-04-24T09:06:48;11.80;;;2.30;;
37527;SDS011;23372;52.050;4.810;2023-04-24T09:09:14;11.53;;;2.17;;
37527;SDS011;23372;52.050;4.810;2023-04-24T09:11:42;11.17;;;2.20;;
37527;SDS011;23372;52.050;4.810;2023-04-24T09:14:09;6.10;;;1.60;;
37527;SDS011;23372;52.050;4.810;2023-04-24T09:16:35;9.20;;;2.00;;
37527;SDS011;23372;52.050;4.810;2023-04-24T09:19:01;9.23;;;1.47;;
37527;SDS011;23372;52.050;4.810;2023-04-24T09:21:31;4.90;;;2.37;;
37527;SDS011;23372;52.050;4.810;2023-04-24T09:24:05;6.47;;;1.57;;
37527;SDS011;23372;52.050;4.810;2023-04-24T09:26:34;4.50;;;1.70;;
37527;SDS011;23372;52.050;4.810;2023-04-24T09:29:00;9.00;;;1.70;;
37527;SDS011;23372;52.050;4.810;2023-04-24T09:31:27;7.40;;;1.27;;
37527;SDS011;23372;52.050;4.810;2023-04-24T09:33:58;11.00;;;1.80;;
37527;SDS011;23372;52.050;4.810;2023-04-24T09:36:29;6.50;;;1.53;;
37527;SDS011;23372;52.050;4.810;2023-04-24T09:39:03;3.63;;;1.00;;
37527;SDS011;23372;52.050;4.810;2023-04-24T09:41:35;7.50;;;1.13;;
37527;SDS011;23372;52.050;4.810;2023-04-24T09:44:19;9.07;;;1.10;;
37527;SDS011;23372;52.050;4.810;2023-04-24T09:46:49;6.17;;;1.90;;
37527;SDS011;23372;52.050;4.810;2023-04-24T09:49:21;5.87;;;1.40;;
37527;SDS011;23372;52.050;4.810;2023-04-24T09:51:49;4.03;;;0.73;;
37527;SDS011;23372;52.050;4.810;2023-04-24T09:54:15;2.43;;;0.70;;
37527;SDS011;23372;52.050;4.810;2023-04-24T09:56:43;4.97;;;0.67;;
37527;SDS011;23372;52.050;4.810;2023-04-24T09:59:13;4.30;;;0.80;;
37527;SDS011;23372;52.050;4.810;2023-04-24T10:01:40;1.87;;;0.90;;
37527;SDS011;23372;52.050;4.810;2023-04-24T10:04:22;4.63;;;0.83;;
37527;SDS011;23372;52.050;4.810;2023-04-24T10:06:50;7.30;;;0.90;;
37527;SDS011;23372;52.050;4.810;2023-04-24T10:09:21;7.43;;;0.90;;
37527;SDS011;23372;52.050;4.810;2023-04-24T10:11:49;5.13;;;0.83;;
37527;SDS011;23372;52.050;4.810;2023-04-24T10:14:17;6.17;;;1.53;;
37527;SDS011;23372;52.050;4.810;2023-04-24T10:16:45;6.93;;;0.90;;
37527;SDS011;23372;52.050;4.810;2023-04-24T10:19:12;6.60;;;0.93;;
37527;SDS011;23372;52.050;4.810;2023-04-24T10:21:38;4.67;;;1.20;;
37527;SDS011;23372;52.050;4.810;2023-04-24T10:24:07;4.63;;;0.87;;
37527;SDS011;23372;52.050;4.810;2023-04-24T10:26:34;4.23;;;0.90;;
37527;SDS011;23372;52.050;4.810;2023-04-24T10:29:00;8.97;;;1.07;;
37527;SDS011;23372;52.050;4.810;2023-04-24T10:31:26;5.90;;;1.00;;
37527;SDS011;23372;52.050;4.810;2023-04-24T10:33:56;7.27;;;1.20;;
37527;SDS011;23372;52.050;4.810;2023-04-24T10:36:23;4.90;;;1.30;;
37527;SDS011;23372;52.050;4.810;2023-04-24T10:38:51;7.40;;;1.20;;
37527;SDS011;23372;52.050;4.810;2023-04-24T10:41:20;10.20;;;1.20;;
37527;SDS011;23372;52.050;4.810;2023-04-24T10:44:10;8.33;;;1.63;;
37527;SDS011;23372;52.050;4.810;2023-04-24T10:46:39;2.47;;;0.70;;
37527;SDS011;23372;52.050;4.810;2023-04-24T10:49:08;5.73;;;1.17;;
37527;SDS011;23372;52.050;4.810;2023-04-24T10:54:29;5.53;;;1.53;;
37527;SDS011;23372;52.050;4.810;2023-04-24T10:59:46;4.53;;;0.70;;
37527;SDS011;23372;52.050;4.810;2023-04-24T11:02:16;5.07;;;1.57;;
37527;SDS011;23372;52.050;4.810;2023-04-24T11:04:42;3.80;;;1.10;;
37527;SDS011;23372;52.050;4.810;2023-04-24T11:07:09;7.27;;;1.53;;
37527;SDS011;23372;52.050;4.810;2023-04-24T11:09:35;8.87;;;1.30;;
37527;SDS011;23372;52.050;4.810;2023-04-24T11:12:05;6.73;;;1.50;;
37527;SDS011;23372;52.050;4.810;2023-04-24T11:17:31;8.07;;;1.00;;
37527;SDS011;23372;52.050;4.810;2023-04-24T11:20:05;5.63;;;0.93;;
37527;SDS011;23372;52.050;4.810;2023-04-24T11:22:35;2.93;;;0.77;;
37527;SDS011;23372;52.050;4.810;2023-04-24T11:25:02;8.47;;;1.67;;
37527;SDS011;23372;52.050;4.810;2023-04-24T11:27:38;7.67;;;1.40;;
37527;SDS011;23372;52.050;4.810;2023-04-24T11:30:06;4.57;;;0.73;;
37527;SDS011;23372;52.050;4.810;2023-04-24T11:34:59;3.13;;;1.10;;
37527;SDS011;23372;52.050;4.810;2023-04-24T11:37:33;6.10;;;1.20;;
37527;SDS011;23372;52.050;4.810;2023-04-24T11:39:59;4.77;;;0.90;;
37527;SDS011;23372;52.050;4.810;2023-04-24T11:42:24;8.83;;;1.50;;
37527;SDS011;23372;52.050;4.810;2023-04-24T11:44:54;2.80;;;0.80;;
37527;SDS011;23372;52.050;4.810;2023-04-24T11:47:27;4.10;;;1.10;;
37527;SDS011;23372;52.050;4.810;2023-04-24T11:49:54;5.17;;;1.10;;
37527;SDS011;23372;52.050;4.810;2023-04-24T11:52:20;7.87;;;1.43;;
37527;SDS011;23372;52.050;4.810;2023-04-24T11:54:49;3.50;;;1.33;;
37527;SDS011;23372;52.050;4.810;2023-04-24T11:57:21;6.30;;;1.07;;
37527;SDS011;23372;52.050;4.810;2023-04-24T11:59:48;9.33;;;1.80;;
37527;SDS011;23372;52.050;4.810;2023-04-24T12:02:24;5.73;;;1.40;;
37527;SDS011;23372;52.050;4.810;2023-04-24T12:04:52;9.60;;;2.13;;
37527;SDS011;23372;52.050;4.810;2023-04-24T12:07:19;9.00;;;1.90;;
37527;SDS011;23372;52.050;4.810;2023-04-24T12:12:24;10.53;;;1.50;;
37527;SDS011;23372;52.050;4.810;2023-04-24T12:14:55;10.40;;;1.97;;
37527;SDS011;23372;52.050;4.810;2023-04-24T12:17:31;11.30;;;2.23;;
37527;SDS011;23372;52.050;4.810;2023-04-24T12:19:59;9.73;;;2.60;;
37527;SDS011;23372;52.050;4.810;2023-04-24T12:22:28;13.53;;;1.87;;
37527;SDS011;23372;52.050;4.810;2023-04-24T12:25:14;12.63;;;2.40;;
37527;SDS011;23372;52.050;4.810;2023-04-24T12:27:41;13.53;;;2.50;;
37527;SDS011;23372;52.050;4.810;2023-04-24T12:30:10;16.63;;;2.20;;
37527;SDS011;23372;52.050;4.810;2023-04-24T12:32:42;10.80;;;1.90;;
37527;SDS011;23372;52.050;4.810;2023-04-24T12:35:12;11.13;;;1.93;;
37527;SDS011;23372;52.050;4.810;2023-04-24T12:37:38;9.00;;;2.40;;
37527;SDS011;23372;52.050;4.810;2023-04-24T12:40:10;12.23;;;2.63;;
37527;SDS011;23372;52.050;4.810;2023-04-24T12:42:44;10.20;;;2.03;;
37527;SDS011;23372;52.050;4.810;2023-04-24T12:45:11;8.50;;;2.50;;
37527;SDS011;23372;52.050;4.810;2023-04-24T12:47:38;19.60;;;3.40;;
37527;SDS011;23372;52.050;4.810;2023-04-24T12:50:05;7.60;;;2.43;;
37527;SDS011;23372;52.050;4.810;2023-04-24T12:52:35;10.57;;;2.60;;
37527;SDS011;23372;52.050;4.810;2023-04-24T12:55:02;13.77;;;3.87;;
37527;SDS011;23372;52.050;4.810;2023-04-24T12:57:28;14.83;;;2.90;;
37527;SDS011;23372;52.050;4.810;2023-04-24T12:59:55;11.50;;;3.63;;
37527;SDS011;23372;52.050;4.810;2023-04-24T13:02:22;11.53;;;2.30;;
37527;SDS011;23372;52.050;4.810;2023-04-24T13:04:58;6.23;;;1.50;;
37527;SDS011;23372;52.050;4.810;2023-04-24T13:07:24;6.93;;;2.10;;
37527;SDS011;23372;52.050;4.810;2023-04-24T13:09:50;10.73;;;3.57;;
37527;SDS011;23372;52.050;4.810;2023-04-24T13:12:16;11.67;;;4.50;;
37527;SDS011;23372;52.050;4.810;2023-04-24T13:14:43;13.07;;;2.90;;
37527;SDS011;23372;52.050;4.810;2023-04-24T13:17:09;14.73;;;3.00;;
37527;SDS011;23372;52.050;4.810;2023-04-24T13:19:37;13.33;;;2.60;;
37527;SDS011;23372;52.050;4.810;2023-04-24T13:22:04;8.70;;;3.17;;
37527;SDS011;23372;52.050;4.810;2023-04-24T13:24:30;20.27;;;4.20;;
37527;SDS011;23372;52.050;4.810;2023-04-24T13:26:57;8.60;;;2.87;;
37527;SDS011;23372;52.050;4.810;2023-04-24T13:29:23;8.53;;;3.47;;
37527;SDS011;23372;52.050;4.810;2023-04-24T13:31:52;11.47;;;2.60;;
37527;SDS011;23372;52.050;4.810;2023-04-24T13:34:22;10.37;;;3.20;;
37527;SDS011;23372;52.050;4.810;2023-04-24T13:36:49;11.13;;;2.80;;
37527;SDS011;23372;52.050;4.810;2023-04-24T13:39:15;14.77;;;3.27;;
37527;SDS011;23372;52.050;4.810;2023-04-24T13:41:41;6.90;;;2.30;;
37527;SDS011;23372;52.050;4.810;2023-04-24T13:44:07;8.27;;;2.90;;
37527;SDS011;23372;52.050;4.810;2023-04-24T13:46:33;10.97;;;2.57;;
37527;SDS011;23372;52.050;4.810;2023-04-24T13:48:59;8.87;;;2.97;;
37527;SDS011;23372;52.050;4.810;2023-04-24T13:51:25;12.03;;;3.20;;
37527;SDS011;23372;52.050;4.810;2023-04-24T13:53:54;11.33;;;3.13;;
37527;SDS011;23372;52.050;4.810;2023-04-24T13:56:20;8.77;;;2.67;;
37527;SDS011;23372;52.050;4.810;2023-04-24T13:58:47;8.27;;;2.77;;
37527;SDS011;23372;52.050;4.810;2023-04-24T14:01:13;7.57;;;2.73;;
37527;SDS011;23372;52.050;4.810;2023-04-24T14:03:40;12.57;;;2.33;;
37527;SDS011;23372;52.050;4.810;2023-04-24T14:06:08;9.47;;;2.97;;
37527;SDS011;23372;52.050;4.810;2023-04-24T14:08:34;14.77;;;2.83;;
37527;SDS011;23372;52.050;4.810;2023-04-24T14:11:00;14.97;;;3.00;;
37527;SDS011;23372;52.050;4.810;2023-04-24T14:13:25;13.50;;;3.50;;
37527;SDS011;23372;52.050;4.810;2023-04-24T14:15:52;9.07;;;2.93;;
37527;SDS011;23372;52.050;4.810;2023-04-24T14:18:18;8.87;;;2.97;;
37527;SDS011;23372;52.050;4.810;2023-04-24T14:20:44;15.37;;;3.33;;
37527;SDS011;23372;52.050;4.810;2023-04-24T14:23:10;15.03;;;3.83;;
37527;SDS011;23372;52.050;4.810;2023-04-24T14:25:36;10.73;;;3.30;;
37527;SDS011;23372;52.050;4.810;2023-04-24T14:28:01;14.73;;;3.67;;
37527;SDS011;23372;52.050;4.810;2023-04-24T14:30:27;17.27;;;3.30;;
37527;SDS011;23372;52.050;4.810;2023-04-24T14:32:52;12.73;;;4.03;;
37527;SDS011;23372;52.050;4.810;2023-04-24T14:35:18;9.27;;;3.60;;
37527;SDS011;23372;52.050;4.810;2023-04-24T14:37:44;16.03;;;4.87;;
37527;SDS011;23372;52.050;4.810;2023-04-24T14:40:10;15.37;;;3.60;;
37527;SDS011;23372;52.050;4.810;2023-04-24T14:42:36;14.83;;;3.97;;
37527;SDS011;23372;52.050;4.810;2023-04-24T14:45:02;9.20;;;2.90;;
37527;SDS011;23372;52.050;4.810;2023-04-24T14:47:27;17.40;;;3.93;;
37527;SDS011;23372;52.050;4.810;2023-04-24T14:49:54;12.67;;;3.23;;
37527;SDS011;23372;52.050;4.810;2023-04-24T14:52:20;14.13;;;3.43;;
37527;SDS011;23372;52.050;4.810;2023-04-24T14:54:46;13.63;;;3.50;;